Time;durP1;ratioP1;P1;durP2;ratioP2;P2;SDS_P1;SDS_P2;PMS_P1;PMS_P2;Temp;Humidity;BMP_temperature;BMP_pressure;BME280_temperature;BME280_humidity;BME280_pressure;Samples;Min_cycle;Max_cycle;Signal;HPM_P1;HPM_P2
2021/12/22 00:00:24;;;;;;;39.65;18.52;;;-3.80;99.90;;;;;;5099436;27;20046;-90
2021/12/22 00:02:50;;;;;;;32.15;17.65;;;-3.80;99.90;;;;;;5096842;27;20050;-90
2021/12/22 00:05:27;;;;;;;38.17;18.15;;;-3.90;99.90;;;;;;5121505;27;20457;-87
2021/12/22 00:07:53;;;;;;;39.75;19.00;;;-4.00;99.90;;;;;;5131069;27;20054;-88
2021/12/22 00:10:20;;;;;;;39.72;18.50;;;-4.00;99.90;;;;;;5097046;27;20396;-88
2021/12/22 00:12:47;;;;;;;35.20;18.98;;;-4.00;99.90;;;;;;5117842;27;20046;-87
2021/12/22 00:15:14;;;;;;;38.10;18.75;;;-4.00;99.90;;;;;;5134926;27;20047;-88
2021/12/22 00:17:40;;;;;;;39.17;19.15;;;-4.00;99.90;;;;;;5114503;27;20103;-88
2021/12/22 00:20:08;;;;;;;32.13;18.15;;;-4.00;99.90;;;;;;5121263;27;20043;-87
2021/12/22 00:22:35;;;;;;;34.97;19.50;;;-4.00;99.90;;;;;;5107011;27;20078;-88
2021/12/22 00:25:02;;;;;;;35.05;19.20;;;-4.00;99.90;;;;;;5118587;27;20085;-88
2021/12/22 00:27:28;;;;;;;39.38;19.45;;;-4.00;99.90;;;;;;5115646;27;20580;-87
2021/12/22 00:29:53;;;;;;;35.78;18.38;;;-4.00;99.90;;;;;;5111751;27;20045;-88
2021/12/22 00:32:20;;;;;;;32.25;17.42;;;-4.00;99.90;;;;;;5118587;27;20061;-87
2021/12/22 00:34:50;;;;;;;38.78;18.95;;;-4.00;99.90;;;;;;5117491;27;20058;-86
2021/12/22 00:37:28;;;;;;;38.47;19.00;;;-4.00;99.90;;;;;;5111794;27;20078;-87
2021/12/22 00:39:55;;;;;;;34.65;17.55;;;-4.00;99.90;;;;;;5134205;27;20447;-88
2021/12/22 00:42:21;;;;;;;39.40;18.13;;;-4.00;99.90;;;;;;5071218;27;20039;-88
2021/12/22 00:44:51;;;;;;;35.75;17.65;;;-4.10;99.90;;;;;;5099727;27;20047;-87
2021/12/22 00:47:18;;;;;;;30.15;16.88;;;-4.10;99.90;;;;;;5106343;27;20034;-88
2021/12/22 00:49:44;;;;;;;30.63;16.98;;;-4.20;99.90;;;;;;5135237;27;20042;-88
2021/12/22 00:52:10;;;;;;;33.83;17.75;;;-4.20;99.90;;;;;;5097398;27;20047;-88
2021/12/22 00:54:36;;;;;;;35.20;17.13;;;-4.30;99.90;;;;;;5108849;27;20042;-87
2021/12/22 00:57:05;;;;;;;33.53;17.15;;;-4.30;99.90;;;;;;5113834;27;20067;-88
2021/12/22 00:59:33;;;;;;;33.83;17.15;;;-4.40;99.90;;;;;;5082478;27;20500;-86
2021/12/22 01:02:00;;;;;;;33.75;16.77;;;-4.40;99.90;;;;;;5097556;27;20053;-87
2021/12/22 01:04:26;;;;;;;39.65;17.60;;;-4.40;99.90;;;;;;5103324;27;20133;-87
2021/12/22 01:06:52;;;;;;;32.60;17.35;;;-4.40;99.90;;;;;;5117877;27;20130;-88
2021/12/22 01:09:18;;;;;;;30.17;15.50;;;-4.50;99.90;;;;;;5118165;27;20094;-87
2021/12/22 01:11:44;;;;;;;35.30;17.23;;;-4.40;99.90;;;;;;5118041;27;20039;-88
2021/12/22 01:14:10;;;;;;;35.03;17.60;;;-4.40;99.90;;;;;;5091436;27;20043;-88
2021/12/22 01:16:35;;;;;;;33.25;18.05;;;-4.40;99.90;;;;;;5097571;27;20051;-88
2021/12/22 01:19:05;;;;;;;34.03;17.88;;;-4.40;99.90;;;;;;5095344;27;20046;-87
2021/12/22 01:21:45;;;;;;;36.20;16.60;;;-4.40;99.90;;;;;;5097419;27;20411;-88
2021/12/22 01:24:33;;;;;;;31.95;16.20;;;-4.40;99.90;;;;;;5100632;27;20070;-88
2021/12/22 01:27:10;;;;;;;36.35;17.98;;;-4.50;99.90;;;;;;5102300;27;20030;-87
2021/12/22 01:29:38;;;;;;;31.80;16.67;;;-4.50;99.90;;;;;;5115006;27;20047;-88
2021/12/22 01:32:08;;;;;;;33.25;16.35;;;-4.50;99.90;;;;;;5116140;27;20051;-87
2021/12/22 01:34:33;;;;;;;33.00;16.73;;;-4.60;99.90;;;;;;5116557;27;20042;-87
2021/12/22 01:36:59;;;;;;;30.65;16.05;;;-4.60;99.90;;;;;;5095359;27;20049;-88
2021/12/22 01:39:25;;;;;;;33.22;17.08;;;-4.70;99.90;;;;;;5098764;27;20095;-87
2021/12/22 01:41:51;;;;;;;31.08;18.52;;;-4.70;99.90;;;;;;5096357;27;20046;-88
2021/12/22 01:44:49;;;;;;;33.33;16.40;;;-4.70;99.90;;;;;;5120645;27;20042;-88
2021/12/22 01:49:59;;;;;;;34.70;16.58;;;-4.80;99.90;;;;;;5119790;27;20058;-88
2021/12/22 01:52:25;;;;;;;30.48;15.75;;;-4.80;99.90;;;;;;5130622;27;20050;-89
2021/12/22 01:55:07;;;;;;;27.92;13.80;;;-4.90;99.90;;;;;;5116466;27;20134;-87
2021/12/22 01:57:43;;;;;;;22.75;13.50;;;-4.90;99.90;;;;;;5117089;27;20074;-88
2021/12/22 02:00:09;;;;;;;;;;;-5.00;99.90;;;;;;5117894;27;20046;-87
2021/12/22 02:02:34;;;;;;;25.17;13.38;;;-5.10;99.90;;;;;;5131102;27;19934;-88
2021/12/22 02:05:00;;;;;;;28.60;13.35;;;-5.10;99.90;;;;;;5105077;27;20057;-88
2021/12/22 02:07:26;;;;;;;27.80;13.77;;;-5.10;99.90;;;;;;5122764;27;20055;-86
2021/12/22 02:12:41;;;;;;;24.50;13.55;;;-5.20;99.90;;;;;;5118221;27;20056;-87
2021/12/22 02:15:07;;;;;;;31.70;15.27;;;-5.20;99.90;;;;;;5116934;27;20061;-88
2021/12/22 02:17:35;;;;;;;27.90;15.07;;;-5.10;99.90;;;;;;5095549;27;20126;-89
2021/12/22 02:20:01;;;;;;;30.02;15.48;;;-5.10;99.90;;;;;;5087368;27;20043;-89
2021/12/22 02:22:27;;;;;;;37.65;15.68;;;-5.10;99.90;;;;;;5105672;27;20506;-88
2021/12/22 02:24:58;;;;;;;30.75;15.75;;;-5.10;99.90;;;;;;5133781;27;20471;-88
2021/12/22 02:29:58;;;;;;;28.67;15.05;;;-5.10;99.90;;;;;;5112073;27;20545;-88
2021/12/22 02:33:02;;;;;;;28.85;15.50;;;-5.10;99.90;;;;;;5087628;27;20528;-88
2021/12/22 02:35:11;;;;;;;33.05;15.77;;;-5.10;99.90;;;;;;5116278;27;20051;-88
2021/12/22 02:37:43;;;;;;;35.47;16.45;;;-5.00;99.90;;;;;;5114088;27;20046;-88
2021/12/22 02:40:14;;;;;;;38.55;17.40;;;-5.00;99.90;;;;;;5132579;27;20051;-86
2021/12/22 02:42:41;;;;;;;32.78;16.60;;;-5.00;99.90;;;;;;5133044;27;20057;-86
2021/12/22 02:45:09;;;;;;;32.22;15.90;;;-5.00;99.90;;;;;;5132455;27;20038;-87
2021/12/22 02:47:35;;;;;;;32.13;16.17;;;-5.00;99.90;;;;;;5131414;27;20085;-87
2021/12/22 02:50:02;;;;;;;33.75;15.88;;;-5.10;99.90;;;;;;5112895;27;20082;-88
2021/12/22 02:52:35;;;;;;;36.13;17.15;;;-5.10;99.90;;;;;;5121458;27;20081;-88
2021/12/22 02:55:02;;;;;;;33.53;15.50;;;-5.10;99.90;;;;;;5109631;27;20043;-87
2021/12/22 02:57:37;;;;;;;39.17;17.33;;;-5.00;99.90;;;;;;5095505;27;20376;-87
2021/12/22 03:02:43;;;;;;;34.90;17.95;;;-5.00;99.90;;;;;;5132454;27;20046;-86
2021/12/22 03:05:09;;;;;;;30.42;15.45;;;-5.00;99.90;;;;;;5115163;27;20081;-86
2021/12/22 03:07:35;;;;;;;32.38;15.68;;;-5.00;99.90;;;;;;5083877;27;20074;-86
2021/12/22 03:10:12;;;;;;;32.38;16.48;;;-5.00;99.90;;;;;;5090640;27;20580;-86
2021/12/22 03:12:39;;;;;;;33.78;15.90;;;-5.00;99.90;;;;;;5115025;27;20046;-87
2021/12/22 03:15:08;;;;;;;36.60;16.00;;;-5.00;99.90;;;;;;5115159;27;20046;-86
2021/12/22 03:17:34;;;;;;;33.22;16.58;;;-5.00;99.90;;;;;;5115448;27;20042;-88
2021/12/22 03:20:01;;;;;;;35.63;16.50;;;-5.00;99.90;;;;;;5113549;27;20047;-88
2021/12/22 03:22:27;;;;;;;35.83;16.17;;;-5.00;99.90;;;;;;5112029;27;20050;-88
2021/12/22 03:24:53;;;;;;;36.95;16.65;;;-5.10;99.90;;;;;;5114099;27;20122;-87
2021/12/22 03:27:20;;;;;;;32.40;16.25;;;-5.00;99.90;;;;;;5113399;27;20126;-88
2021/12/22 03:29:46;;;;;;;38.38;17.10;;;-5.10;99.90;;;;;;5082301;27;20054;-86
2021/12/22 03:32:12;;;;;;;31.88;16.65;;;-5.00;99.90;;;;;;5094926;27;20050;-87
2021/12/22 03:34:40;;;;;;;35.85;17.48;;;-5.00;99.90;;;;;;5093619;28;20058;-86
2021/12/22 03:37:06;;;;;;;32.97;16.30;;;-5.00;99.90;;;;;;5080198;27;20054;-87
2021/12/22 03:39:32;;;;;;;34.95;17.55;;;-5.00;99.90;;;;;;5086156;27;20034;-87
2021/12/22 03:41:59;;;;;;;40.08;16.58;;;-5.00;99.90;;;;;;5113928;27;20043;-86
2021/12/22 03:44:25;;;;;;;35.00;15.50;;;-5.00;99.90;;;;;;5130197;27;20082;-87
2021/12/22 03:46:51;;;;;;;29.13;16.02;;;-5.00;99.90;;;;;;5109328;28;20077;-88
2021/12/22 03:49:17;;;;;;;34.08;16.23;;;-4.90;99.90;;;;;;5112410;27;20046;-88
2021/12/22 03:51:43;;;;;;;37.60;16.73;;;-5.00;99.90;;;;;;5131664;27;20388;-87
2021/12/22 03:54:11;;;;;;;31.15;15.15;;;-5.00;99.90;;;;;;5110963;28;20051;-87
2021/12/22 03:56:37;;;;;;;32.20;15.77;;;-5.00;99.90;;;;;;5114008;27;20042;-87
2021/12/22 03:59:04;;;;;;;34.22;16.15;;;-5.10;99.90;;;;;;5131131;27;20035;-87
2021/12/22 04:01:30;;;;;;;34.90;15.43;;;-5.10;99.90;;;;;;5111261;27;20043;-87
2021/12/22 04:04:00;;;;;;;31.70;16.13;;;-5.10;99.90;;;;;;5111733;28;20668;-86
2021/12/22 04:06:26;;;;;;;36.53;16.52;;;-5.10;99.90;;;;;;5101725;27;21219;-88
2021/12/22 04:08:52;;;;;;;35.00;15.88;;;-5.10;99.90;;;;;;5114871;27;20499;-88
2021/12/22 04:11:18;;;;;;;36.90;16.27;;;-5.20;99.90;;;;;;5094616;27;20046;-88
2021/12/22 04:13:44;;;;;;;36.45;16.40;;;-5.20;99.90;;;;;;5115199;27;20047;-88
2021/12/22 04:16:09;;;;;;;33.95;15.82;;;-5.20;99.90;;;;;;5114144;27;20408;-88
2021/12/22 04:18:35;;;;;;;37.65;16.98;;;-5.20;99.90;;;;;;5109802;27;20043;-88
2021/12/22 04:21:01;;;;;;;36.50;15.98;;;-5.20;99.90;;;;;;5114013;27;20496;-88
2021/12/22 04:23:26;;;;;;;31.00;17.55;;;-5.20;99.90;;;;;;5130856;27;20039;-87
2021/12/22 04:25:52;;;;;;;38.53;18.13;;;-5.20;99.90;;;;;;5098372;27;20459;-88
2021/12/22 04:28:18;;;;;;;34.83;16.65;;;-5.20;99.90;;;;;;5095958;27;20448;-87
2021/12/22 04:30:48;;;;;;;40.10;18.17;;;-5.20;99.90;;;;;;5099368;27;20050;-87
2021/12/22 04:33:15;;;;;;;38.17;17.10;;;-5.20;99.90;;;;;;5115453;27;20051;-88
2021/12/22 04:35:41;;;;;;;42.75;18.08;;;-5.20;99.90;;;;;;5115169;27;20129;-87
2021/12/22 04:38:07;;;;;;;33.35;17.88;;;-5.20;99.90;;;;;;5134770;27;20188;-87
2021/12/22 04:40:32;;;;;;;39.03;17.98;;;-5.10;99.90;;;;;;5134939;27;20148;-88
2021/12/22 04:42:58;;;;;;;40.75;17.90;;;-5.10;99.90;;;;;;5117715;27;20047;-87
2021/12/22 04:45:24;;;;;;;37.13;19.02;;;-5.10;99.90;;;;;;5114895;27;20074;-88
2021/12/22 04:47:51;;;;;;;44.15;19.77;;;-5.10;99.90;;;;;;5135462;27;20122;-88
2021/12/22 04:50:19;;;;;;;42.05;18.20;;;-5.10;99.90;;;;;;5117109;27;20038;-88
2021/12/22 04:52:58;;;;;;;38.45;17.55;;;-5.00;99.90;;;;;;5134783;27;20413;-89
2021/12/22 04:55:25;;;;;;;38.28;18.05;;;-5.10;99.90;;;;;;5117953;27;20074;-88
2021/12/22 04:57:55;;;;;;;34.92;17.30;;;-5.10;99.90;;;;;;5116278;27;20046;-88
2021/12/22 05:00:22;;;;;;;39.20;16.65;;;-5.10;99.90;;;;;;5096074;27;20057;-87
2021/12/22 05:02:48;;;;;;;39.75;17.40;;;-5.10;99.90;;;;;;5131362;27;20235;-88
2021/12/22 05:05:14;;;;;;;38.25;18.20;;;-5.20;99.90;;;;;;5097875;27;20070;-88
2021/12/22 05:07:40;;;;;;;36.33;17.35;;;-5.20;99.90;;;;;;5110061;27;20495;-88
2021/12/22 05:10:06;;;;;;;38.50;17.30;;;-5.20;99.90;;;;;;5098913;27;20139;-88
2021/12/22 05:12:32;;;;;;;38.58;17.60;;;-5.30;99.90;;;;;;5107891;27;20183;-87
2021/12/22 05:14:58;;;;;;;35.15;16.98;;;-5.20;99.90;;;;;;5132312;27;20134;-87
2021/12/22 05:20:08;;;;;;;33.70;16.48;;;-5.30;99.90;;;;;;5112961;27;20050;-87
2021/12/22 05:22:34;;;;;;;37.03;16.95;;;-5.30;99.90;;;;;;5117270;27;20050;-88
2021/12/22 05:25:02;;;;;;;39.33;17.63;;;-5.30;99.90;;;;;;5118150;27;20046;-88
2021/12/22 05:27:28;;;;;;;34.10;17.35;;;-5.30;99.90;;;;;;5116387;27;20038;-87
2021/12/22 05:29:53;;;;;;;38.10;16.33;;;-5.20;99.90;;;;;;5115551;27;20058;-88
2021/12/22 05:32:22;;;;;;;40.13;18.17;;;-5.20;99.90;;;;;;5133932;27;20053;-87
2021/12/22 05:34:47;;;;;;;39.20;17.67;;;-5.10;99.90;;;;;;5117078;27;20391;-88
2021/12/22 05:37:13;;;;;;;34.53;16.67;;;-5.20;99.90;;;;;;5117733;27;20050;-87
2021/12/22 05:39:39;;;;;;;37.97;16.40;;;-5.10;99.90;;;;;;5092982;27;20066;-88
2021/12/22 05:42:05;;;;;;;35.75;16.98;;;-5.10;99.90;;;;;;5103423;27;20054;-89
2021/12/22 05:44:30;;;;;;;36.85;17.35;;;-5.10;99.90;;;;;;5068586;27;20074;-86
2021/12/22 05:46:56;;;;;;;39.60;17.50;;;-5.10;99.90;;;;;;5110763;27;20039;-89
2021/12/22 05:49:22;;;;;;;40.38;18.08;;;-5.10;99.90;;;;;;5096094;27;20047;-90
2021/12/22 05:51:47;;;;;;;36.92;16.55;;;-5.10;99.90;;;;;;5104564;27;20480;-89
2021/12/22 05:54:14;;;;;;;37.53;16.90;;;-5.10;99.90;;;;;;5081933;27;20035;-89
2021/12/22 05:56:40;;;;;;;36.15;16.52;;;-5.10;99.90;;;;;;5102342;27;20112;-88
2021/12/22 05:59:06;;;;;;;40.00;17.35;;;-5.10;99.90;;;;;;5125385;27;20055;-88
2021/12/22 06:01:32;;;;;;;34.60;15.75;;;-5.10;99.90;;;;;;5129921;27;20403;-89
2021/12/22 06:04:00;;;;;;;36.97;17.17;;;-5.10;99.90;;;;;;5133572;27;20049;-87
2021/12/22 06:06:26;;;;;;;40.53;17.75;;;-5.10;99.90;;;;;;5116380;27;20517;-86
2021/12/22 06:08:53;;;;;;;40.17;19.48;;;-5.10;99.90;;;;;;5132820;27;20046;-88
2021/12/22 06:11:19;;;;;;;40.40;17.88;;;-5.10;99.90;;;;;;5108512;27;20042;-88
2021/12/22 06:13:45;;;;;;;40.60;18.55;;;-5.10;99.90;;;;;;5115976;27;20125;-86
2021/12/22 06:16:11;;;;;;;34.28;16.67;;;-5.10;99.90;;;;;;5131358;27;20125;-85
2021/12/22 06:18:42;;;;;;;39.97;16.63;;;-5.10;99.90;;;;;;5099715;27;20471;-85
2021/12/22 06:21:09;;;;;;;39.40;17.52;;;-5.10;99.90;;;;;;5101431;27;20486;-85
2021/12/22 06:23:35;;;;;;;36.65;17.35;;;-5.10;99.90;;;;;;5116819;27;20054;-85
2021/12/22 06:26:00;;;;;;;41.55;17.27;;;-5.10;99.90;;;;;;5115008;27;20042;-85
2021/12/22 06:28:26;;;;;;;36.05;16.92;;;-5.20;99.90;;;;;;5109364;27;20058;-84
2021/12/22 06:30:52;;;;;;;34.45;15.82;;;-5.20;99.90;;;;;;5078366;27;20043;-89
2021/12/22 06:33:17;;;;;;;34.55;16.60;;;-5.20;99.90;;;;;;5134118;27;20078;-89
2021/12/22 06:35:46;;;;;;;37.53;16.23;;;-5.20;99.90;;;;;;5099886;27;20035;-92
2021/12/22 06:38:13;;;;;;;41.83;17.38;;;-5.20;99.90;;;;;;5126157;27;20043;-92
2021/12/22 06:40:39;;;;;;;37.83;17.05;;;-5.20;99.90;;;;;;5129587;27;20047;-88
2021/12/22 06:43:05;;;;;;;39.15;16.67;;;-5.20;99.90;;;;;;5087204;27;20166;-88
2021/12/22 06:45:30;;;;;;;32.80;15.88;;;-5.20;99.90;;;;;;5089688;27;20055;-89
2021/12/22 06:47:56;;;;;;;33.92;16.08;;;-5.20;99.90;;;;;;5132996;27;20031;-89
2021/12/22 06:50:22;;;;;;;34.72;16.05;;;-5.20;99.90;;;;;;5128747;27;20066;-85
2021/12/22 06:52:48;;;;;;;34.05;15.82;;;-5.20;99.90;;;;;;5110919;27;20082;-83
2021/12/22 06:55:13;;;;;;;36.90;16.15;;;-5.30;99.90;;;;;;5096345;27;20035;-81
2021/12/22 06:57:39;;;;;;;39.75;17.15;;;-5.30;99.90;;;;;;5093614;27;20488;-93
2021/12/22 07:00:08;;;;;;;101.13;21.65;;;-5.30;99.90;;;;;;5110578;27;20073;-86
2021/12/22 07:02:37;;;;;;;46.45;16.15;;;-5.30;99.90;;;;;;5131989;27;20042;-82
2021/12/22 07:05:08;;;;;;;37.92;15.98;;;-5.30;99.90;;;;;;5097169;28;20051;-82
2021/12/22 07:07:35;;;;;;;35.97;16.33;;;-5.30;99.90;;;;;;5125528;27;20145;-82
2021/12/22 07:10:03;;;;;;;40.30;16.95;;;-5.30;99.90;;;;;;5096833;28;20491;-83
2021/12/22 07:12:29;;;;;;;36.28;16.40;;;-5.30;99.90;;;;;;5131255;27;20050;-85
2021/12/22 07:14:54;;;;;;;40.53;17.70;;;-5.30;99.90;;;;;;5080107;28;20063;-82
2021/12/22 07:17:20;;;;;;;37.00;17.10;;;-5.30;99.90;;;;;;5080858;28;20053;-83
2021/12/22 07:19:46;;;;;;;37.08;16.35;;;-5.30;99.90;;;;;;5107191;28;20053;-83
2021/12/22 07:22:11;;;;;;;36.55;16.10;;;-5.30;99.90;;;;;;5114388;28;20503;-82
2021/12/22 07:24:37;;;;;;;39.38;16.63;;;-5.30;99.90;;;;;;5096647;28;20043;-82
2021/12/22 07:27:03;;;;;;;37.92;17.35;;;-5.30;99.90;;;;;;5097007;28;20036;-82
2021/12/22 07:29:29;;;;;;;40.70;17.10;;;-5.20;99.90;;;;;;5114310;28;20434;-87
2021/12/22 07:31:55;;;;;;;36.95;18.27;;;-5.20;99.90;;;;;;5123190;27;20055;-82
2021/12/22 07:34:21;;;;;;;41.13;16.98;;;-5.20;99.90;;;;;;5102542;28;20088;-82
2021/12/22 07:36:55;;;;;;;43.53;17.88;;;-5.20;99.90;;;;;;5113943;28;20051;-82
2021/12/22 07:39:21;;;;;;;42.40;17.17;;;-5.20;99.90;;;;;;5117150;27;20049;-82
2021/12/22 07:41:46;;;;;;;39.38;17.77;;;-5.20;99.90;;;;;;5117460;27;20046;-83
2021/12/22 07:44:12;;;;;;;38.72;16.55;;;-5.10;99.90;;;;;;5103926;28;20054;-82
2021/12/22 07:46:37;;;;;;;42.05;17.90;;;-5.10;99.90;;;;;;5096890;28;20126;-82
2021/12/22 07:49:03;;;;;;;44.40;17.73;;;-5.10;99.90;;;;;;5080192;28;20047;-82
2021/12/22 07:51:29;;;;;;;41.13;17.25;;;-5.10;99.90;;;;;;5114083;28;20055;-82
2021/12/22 07:53:55;;;;;;;38.17;17.05;;;-5.10;99.90;;;;;;5086687;28;20047;-82
2021/12/22 07:56:20;;;;;;;40.85;16.38;;;-5.00;99.90;;;;;;5115112;28;20054;-82
2021/12/22 07:58:46;;;;;;;38.10;17.60;;;-5.00;99.90;;;;;;5116557;27;20046;-82
2021/12/22 08:01:12;;;;;;;35.13;17.17;;;-5.00;99.90;;;;;;5069967;28;20058;-81
2021/12/22 08:03:37;;;;;;;41.70;17.92;;;-5.00;99.90;;;;;;5117731;27;20091;-82
2021/12/22 08:06:03;;;;;;;38.95;16.63;;;-4.90;99.90;;;;;;5076706;27;20038;-82
2021/12/22 08:08:29;;;;;;;41.22;17.15;;;-4.90;99.90;;;;;;5145667;27;20065;-82
2021/12/22 08:10:55;;;;;;;40.08;17.25;;;-4.80;99.90;;;;;;5103549;27;20068;-82
2021/12/22 08:13:21;;;;;;;40.08;17.33;;;-4.90;99.90;;;;;;5121226;27;20128;-82
2021/12/22 08:15:46;;;;;;;42.33;16.75;;;-4.80;99.90;;;;;;5115114;27;20047;-83
2021/12/22 08:18:12;;;;;;;43.35;17.38;;;-4.80;99.90;;;;;;5113308;27;20050;-84
2021/12/22 08:20:38;;;;;;;42.60;18.30;;;-4.80;99.90;;;;;;5117638;27;20031;-85
2021/12/22 08:23:04;;;;;;;39.05;16.40;;;-4.70;99.90;;;;;;5119782;27;20049;-82
2021/12/22 08:25:30;;;;;;;38.28;17.40;;;-4.70;99.90;;;;;;5101790;27;20072;-82
2021/12/22 08:27:55;;;;;;;42.80;18.15;;;-4.60;99.90;;;;;;5110907;27;20035;-83
2021/12/22 08:30:21;;;;;;;40.63;17.58;;;-4.60;99.90;;;;;;5102557;27;20043;-83
2021/12/22 08:32:47;;;;;;;40.10;18.48;;;-4.60;99.90;;;;;;5092262;27;20496;-82
2021/12/22 08:35:15;;;;;;;38.10;17.83;;;-4.60;99.90;;;;;;5091698;27;20046;-83
2021/12/22 08:40:26;;;;;;;36.25;15.63;;;-4.50;99.90;;;;;;5128410;27;20051;-83
2021/12/22 08:42:52;;;;;;;40.60;17.80;;;-4.40;99.90;;;;;;5118746;27;20034;-83
2021/12/22 08:45:18;;;;;;;41.85;17.10;;;-4.30;99.90;;;;;;5119328;27;20122;-83
2021/12/22 08:47:45;;;;;;;40.65;16.77;;;-4.20;99.90;;;;;;5118888;27;20524;-81
2021/12/22 08:50:14;;;;;;;38.35;16.35;;;-4.20;99.90;;;;;;5136621;27;20093;-85
2021/12/22 08:52:40;;;;;;;40.22;16.88;;;-4.10;99.90;;;;;;5134797;27;20047;-87
2021/12/22 08:55:06;;;;;;;42.55;16.95;;;-4.10;99.90;;;;;;5116210;27;20103;-83
2021/12/22 08:57:34;;;;;;;40.15;17.35;;;-4.00;99.90;;;;;;5127308;27;20122;-83
2021/12/22 09:00:01;;;;;;;44.45;16.83;;;-3.90;99.90;;;;;;5107809;27;20116;-83
2021/12/22 09:02:26;;;;;;;39.00;17.20;;;-3.90;99.90;;;;;;5081171;27;20495;-83
2021/12/22 09:04:52;;;;;;;35.80;16.60;;;-3.80;99.90;;;;;;5114222;27;20031;-83
2021/12/22 09:07:18;;;;;;;39.50;17.55;;;-3.80;99.90;;;;;;5134648;27;20087;-82
2021/12/22 09:09:44;;;;;;;38.25;17.10;;;-3.70;99.90;;;;;;5085642;27;20469;-87
2021/12/22 09:12:10;;;;;;;37.80;17.50;;;-3.60;99.90;;;;;;5084381;27;20468;-82
2021/12/22 09:14:36;;;;;;;42.35;18.15;;;-3.60;99.90;;;;;;5109273;27;20082;-81
2021/12/22 09:17:02;;;;;;;49.15;20.27;;;-3.50;99.90;;;;;;5085599;27;20081;-82
2021/12/22 09:19:28;;;;;;;46.40;19.92;;;-3.40;99.90;;;;;;5116126;27;20509;-82
2021/12/22 09:21:54;;;;;;;47.05;20.48;;;-3.30;99.90;;;;;;5132046;27;20157;-82
2021/12/22 09:24:19;;;;;;;46.40;19.50;;;-3.40;99.90;;;;;;5096690;27;20070;-82
2021/12/22 09:26:46;;;;;;;37.33;17.17;;;-3.40;99.90;;;;;;5099693;27;20043;-87
2021/12/22 09:29:12;;;;;;;39.33;17.40;;;-3.30;99.90;;;;;;5085568;27;20047;-82
2021/12/22 09:31:38;;;;;;;34.20;16.83;;;-3.30;99.90;;;;;;5122077;27;20034;-82
2021/12/22 09:34:05;;;;;;;33.20;16.08;;;-3.30;99.90;;;;;;5134718;27;20046;-85
2021/12/22 09:36:31;;;;;;;33.53;15.90;;;-3.30;99.90;;;;;;5095108;27;20047;-84
2021/12/22 09:38:57;;;;;;;40.42;18.52;;;-3.20;99.90;;;;;;5131814;27;20483;-83
2021/12/22 09:41:23;;;;;;;38.30;16.65;;;-3.20;99.90;;;;;;5096245;27;20437;-80
2021/12/22 09:43:52;;;;;;;41.42;18.90;;;-3.20;99.90;;;;;;5117381;27;20045;-82
2021/12/22 09:46:21;;;;;;;47.08;20.65;;;-3.10;99.90;;;;;;5114633;27;20491;-82
2021/12/22 09:53:43;;;;;;;45.55;20.65;;;-2.90;99.90;;;;;;5113343;27;20051;-83
2021/12/22 09:56:16;;;;;;;51.65;21.88;;;-2.80;99.90;;;;;;5120197;27;20031;-83
2021/12/22 09:58:44;;;;;;;35.65;17.60;;;-2.80;99.90;;;;;;5083927;27;20445;-83
2021/12/22 10:01:11;;;;;;;40.20;17.08;;;-2.70;99.90;;;;;;5097799;27;20562;-83
2021/12/22 10:03:38;;;;;;;34.22;17.02;;;-2.60;99.90;;;;;;5112850;27;20043;-84
2021/12/22 10:06:04;;;;;;;41.33;17.30;;;-2.50;99.90;;;;;;5131798;27;20098;-83
2021/12/22 10:08:30;;;;;;;40.63;19.80;;;-2.50;99.90;;;;;;5090213;27;20051;-83
2021/12/22 10:11:05;;;;;;;36.50;18.15;;;-2.50;99.90;;;;;;5113063;27;20050;-84
2021/12/22 10:13:32;;;;;;;26.58;13.30;;;-2.40;99.90;;;;;;5103258;27;20082;-83
2021/12/22 10:15:59;;;;;;;37.42;18.13;;;-2.40;99.90;;;;;;5086288;27;20054;-83
2021/12/22 10:18:28;;;;;;;37.47;17.38;;;-2.30;99.90;;;;;;5095263;27;20126;-83
2021/12/22 10:21:09;;;;;;;34.22;19.63;;;-2.30;99.90;;;;;;5114408;27;20034;-87
2021/12/22 10:23:35;;;;;;;33.33;16.40;;;-2.20;99.90;;;;;;5113948;27;20043;-83
2021/12/22 10:26:07;;;;;;;36.10;16.77;;;-2.10;99.90;;;;;;5139197;27;20043;-83
2021/12/22 10:28:53;;;;;;;38.10;19.27;;;-2.10;99.90;;;;;;5113240;27;20038;-83
2021/12/22 10:31:32;;;;;;;36.10;17.30;;;-2.00;99.90;;;;;;5107158;27;20108;-83
2021/12/22 10:34:00;;;;;;;29.52;16.00;;;-1.90;99.90;;;;;;5115693;27;20043;-83
2021/12/22 10:36:27;;;;;;;29.63;15.50;;;-1.90;99.90;;;;;;5133473;27;20081;-85
2021/12/22 10:39:00;;;;;;;30.13;15.55;;;-1.80;99.90;;;;;;5134803;27;20043;-83
2021/12/22 10:41:31;;;;;;;31.02;14.95;;;-1.70;99.90;;;;;;5117492;27;20046;-84
2021/12/22 10:43:58;;;;;;;30.60;15.63;;;-1.60;99.90;;;;;;5134119;27;20055;-88
2021/12/22 10:46:32;;;;;;;32.78;15.48;;;-1.50;99.90;;;;;;5066342;27;20051;-85
2021/12/22 10:49:30;;;;;;;33.75;16.42;;;-1.30;99.90;;;;;;5107321;27;20043;-83
2021/12/22 10:51:59;;;;;;;33.58;17.33;;;-1.30;99.90;;;;;;5058073;27;20051;-88
2021/12/22 10:54:31;;;;;;;30.98;15.57;;;-1.20;99.90;;;;;;5106856;27;20051;-83
2021/12/22 10:56:58;;;;;;;35.22;16.83;;;-1.20;99.90;;;;;;5133314;27;20038;-86
2021/12/22 10:59:24;;;;;;;42.63;17.42;;;-1.10;99.90;;;;;;5114754;27;20161;-82
2021/12/22 11:01:53;;;;;;;49.63;22.60;;;-1.10;99.90;;;;;;5112935;27;20448;-82
2021/12/22 11:04:24;;;;;;;49.03;19.40;;;-1.00;99.90;;;;;;5130469;27;20054;-82
2021/12/22 11:06:52;;;;;;;54.67;21.48;;;-1.00;99.90;;;;;;5134333;27;20099;-83
2021/12/22 11:09:19;;;;;;;58.75;21.30;;;-1.00;99.90;;;;;;5099641;27;20655;-83
2021/12/22 11:12:00;;;;;;;42.85;18.15;;;-1.00;99.90;;;;;;5116787;27;20134;-82
2021/12/22 11:14:29;;;;;;;41.83;19.75;;;-0.90;99.90;;;;;;5117783;27;20527;-82
2021/12/22 11:16:54;;;;;;;45.92;24.58;;;-0.90;99.90;;;;;;5117308;27;20040;-83
2021/12/22 11:19:21;;;;;;;30.20;14.60;;;-0.90;99.90;;;;;;5096862;28;20438;-82
2021/12/22 11:22:15;;;;;;;24.30;13.00;;;-0.80;99.90;;;;;;5113706;28;20079;-85
2021/12/22 11:24:43;;;;;;;29.60;14.63;;;-0.80;99.90;;;;;;5130183;27;20086;-84
2021/12/22 11:27:11;;;;;;;24.05;12.93;;;-0.80;99.90;;;;;;5111434;27;20053;-81
2021/12/22 11:29:40;;;;;;;27.50;15.05;;;-0.70;99.90;;;;;;5100591;27;20041;-82
2021/12/22 11:32:08;;;;;;;27.90;14.23;;;-0.80;99.90;;;;;;5097322;28;20051;-82
2021/12/22 11:34:37;;;;;;;28.73;14.70;;;-0.80;99.90;;;;;;5097202;28;20078;-81
2021/12/22 11:37:09;;;;;;;31.35;14.43;;;-0.80;99.90;;;;;;5121880;27;20129;-87
2021/12/22 11:39:35;;;;;;;26.50;13.73;;;-0.80;99.90;;;;;;5117336;27;20414;-83
2021/12/22 11:42:04;;;;;;;27.20;14.52;;;-0.80;99.90;;;;;;5120380;27;20452;-82
2021/12/22 11:44:31;;;;;;;24.63;13.48;;;-0.80;99.90;;;;;;5106155;27;20038;-82
2021/12/22 11:47:00;;;;;;;27.17;13.73;;;-0.80;99.90;;;;;;5138228;27;20043;-82
2021/12/22 11:49:28;;;;;;;23.08;12.88;;;-0.90;99.90;;;;;;5120380;27;20081;-84
2021/12/22 11:51:56;;;;;;;24.77;12.30;;;-0.90;99.90;;;;;;5093172;27;20097;-82
2021/12/22 11:54:28;;;;;;;21.40;12.65;;;-0.90;99.90;;;;;;5114486;27;20499;-83
2021/12/22 11:56:57;;;;;;;26.45;13.35;;;-0.90;99.90;;;;;;5117610;27;20075;-82
2021/12/22 11:59:43;;;;;;;26.95;14.43;;;-0.90;99.90;;;;;;5119648;27;20049;-82
2021/12/22 12:02:34;;;;;;;26.40;13.93;;;-0.90;99.90;;;;;;5119037;27;20062;-81
2021/12/22 12:05:19;;;;;;;23.08;12.63;;;-0.80;99.90;;;;;;5120215;27;20054;-83
2021/12/22 12:07:53;;;;;;;26.60;13.07;;;-0.80;99.90;;;;;;5128879;27;20047;-82
2021/12/22 12:10:38;;;;;;;27.73;13.85;;;-0.80;99.90;;;;;;5135778;27;20626;-83
2021/12/22 12:13:11;;;;;;;30.98;14.30;;;-0.70;99.90;;;;;;5114378;27;20122;-82
2021/12/22 12:21:56;;;;;;;28.08;14.50;;;-0.70;99.90;;;;;;5136825;27;20095;-82
2021/12/22 12:24:31;;;;;;;27.95;13.27;;;-0.70;99.90;;;;;;5136537;27;20042;-82
2021/12/22 12:26:58;;;;;;;30.33;16.00;;;-0.70;99.90;;;;;;5134695;27;20053;-83
2021/12/22 12:29:56;;;;;;;27.00;13.98;;;-0.70;99.90;;;;;;5106292;27;20070;-83
2021/12/22 12:32:50;;;;;;;23.83;13.43;;;-0.70;99.90;;;;;;5098275;27;20047;-79
2021/12/22 12:35:19;;;;;;;27.60;12.70;;;-0.70;99.90;;;;;;5129585;27;20179;-84
2021/12/22 12:38:06;;;;;;;23.67;13.18;;;-0.70;99.90;;;;;;5124723;27;20080;-82
2021/12/22 12:43:52;;;;;;;27.25;12.88;;;-0.70;99.90;;;;;;5119871;27;20050;-82
2021/12/22 12:46:21;;;;;;;42.35;17.27;;;-0.70;99.90;;;;;;5118753;27;20054;-82
2021/12/22 12:48:55;;;;;;;37.33;14.98;;;-0.70;99.90;;;;;;5110574;27;20099;-82
2021/12/22 12:51:25;;;;;;;39.50;15.40;;;-0.70;99.90;;;;;;5125186;27;20127;-83
2021/12/22 12:53:54;;;;;;;28.65;14.27;;;-0.70;99.90;;;;;;5126457;27;20437;-83
2021/12/22 12:56:21;;;;;;;26.77;12.73;;;-0.70;99.90;;;;;;5116852;27;20051;-83
2021/12/22 12:58:54;;;;;;;23.38;12.77;;;-0.70;99.90;;;;;;5122323;27;20167;-83
2021/12/22 13:01:51;;;;;;;24.17;12.93;;;-0.70;99.90;;;;;;5110430;27;20129;-83
2021/12/22 13:04:27;;;;;;;26.05;13.45;;;-0.70;99.90;;;;;;5108599;27;20411;-81